createdAt,value
2019-05-05T00:00:35.750Z,6.80
2019-05-05T00:03:14.893Z,6.80
2019-05-05T00:05:45.447Z,6.80
2019-05-05T00:08:15.247Z,6.80
2019-05-05T00:10:58.173Z,6.80
2019-05-05T00:13:28.811Z,6.80
2019-05-05T00:16:16.131Z,6.70
2019-05-05T00:18:45.538Z,6.70
2019-05-05T00:21:15.138Z,6.70
2019-05-05T00:23:45.106Z,6.70
2019-05-05T00:26:14.895Z,6.80
2019-05-05T00:28:44.832Z,6.80
2019-05-05T00:31:15.011Z,6.70
2019-05-05T00:33:44.884Z,6.80
2019-05-05T00:36:14.558Z,6.80
2019-05-05T00:38:45.450Z,6.80
2019-05-05T00:41:14.861Z,6.80
2019-05-05T00:43:45.115Z,6.80
2019-05-05T00:46:32.231Z,6.80
2019-05-05T00:49:01.126Z,6.80
2019-05-05T00:51:30.021Z,6.80
2019-05-05T00:53:58.809Z,6.80
2019-05-05T00:56:27.713Z,6.80
2019-05-05T00:58:58.072Z,6.80
2019-05-05T01:01:31.232Z,6.80
2019-05-05T01:04:00.946Z,6.80
2019-05-05T01:06:31.579Z,6.80
2019-05-05T01:09:00.581Z,6.80
2019-05-05T01:11:29.743Z,6.70
2019-05-05T01:13:58.676Z,6.80
2019-05-05T01:16:27.771Z,6.80
2019-05-05T01:18:56.771Z,6.70
2019-05-05T01:21:25.766Z,6.70
2019-05-05T01:23:54.901Z,6.70
2019-05-05T01:26:24.855Z,6.70
2019-05-05T01:28:56.167Z,6.70
2019-05-05T01:31:25.253Z,6.70
2019-05-05T01:33:58.830Z,6.70
2019-05-05T01:36:27.832Z,6.70
2019-05-05T01:38:58.259Z,6.70
2019-05-05T01:41:31.661Z,6.70
2019-05-05T01:44:00.557Z,6.70
2019-05-05T01:46:29.756Z,6.70
2019-05-05T01:48:58.615Z,6.70
2019-05-05T01:51:27.649Z,6.70
2019-05-05T01:53:56.545Z,6.70
2019-05-05T01:56:25.744Z,6.70
2019-05-05T01:58:54.863Z,6.80
2019-05-05T02:01:24.675Z,6.70
2019-05-05T02:03:54.861Z,6.80
2019-05-05T02:06:24.800Z,6.70
2019-05-05T02:08:54.776Z,6.80
2019-05-05T02:11:24.732Z,6.70
2019-05-05T02:13:54.576Z,6.70
2019-05-05T02:16:25.342Z,6.70
2019-05-05T02:18:54.560Z,6.80
2019-05-05T02:21:24.738Z,6.80
2019-05-05T02:23:54.780Z,6.80
2019-05-05T02:26:24.512Z,6.80
2019-05-05T02:29:01.025Z,6.80
2019-05-05T02:31:49.770Z,6.80
2019-05-05T02:34:18.872Z,6.80
2019-05-05T02:36:47.871Z,6.80
2019-05-05T02:39:16.657Z,6.70
2019-05-05T02:41:45.692Z,6.70
2019-05-05T02:44:15.597Z,6.70
2019-05-05T02:46:48.359Z,6.70
2019-05-05T02:49:18.071Z,6.70
2019-05-05T02:51:48.506Z,6.70
2019-05-05T02:54:18.496Z,6.60
2019-05-05T02:56:54.086Z,6.60
2019-05-05T02:59:26.800Z,6.60
2019-05-05T03:02:04.142Z,6.60
2019-05-05T03:04:33.627Z,6.50
2019-05-05T03:07:04.791Z,6.50
2019-05-05T03:09:35.821Z,6.50
2019-05-05T03:12:05.604Z,6.50
2019-05-05T03:14:36.513Z,6.50
2019-05-05T03:17:08.283Z,6.50
2019-05-05T03:19:37.151Z,6.50
2019-05-05T03:22:07.326Z,6.60
2019-05-05T03:24:36.564Z,6.60
2019-05-05T03:27:05.571Z,6.60
2019-05-05T03:29:34.365Z,6.60
2019-05-05T03:32:05.636Z,6.70
2019-05-05T03:34:34.414Z,6.70
2019-05-05T03:37:04.247Z,6.70
2019-05-05T03:39:34.110Z,6.70
2019-05-05T03:42:05.526Z,6.80
2019-05-05T03:44:39.293Z,6.80
2019-05-05T03:47:09.182Z,6.90
2019-05-05T03:49:38.555Z,6.90
2019-05-05T03:52:07.797Z,7.00
2019-05-05T03:54:36.815Z,7.10
2019-05-05T03:57:08.354Z,7.20
2019-05-05T03:59:40.337Z,7.30
2019-05-05T04:02:26.019Z,7.30
2019-05-05T04:05:14.459Z,7.30
2019-05-05T04:07:44.028Z,7.40
2019-05-05T04:10:14.028Z,7.40
2019-05-05T04:12:43.548Z,7.40
2019-05-05T04:15:14.212Z,7.40
2019-05-05T04:17:56.951Z,7.30
2019-05-05T04:20:27.783Z,7.30
2019-05-05T04:22:58.236Z,7.30
2019-05-05T04:25:27.310Z,7.30
2019-05-05T04:27:56.309Z,7.20
2019-05-05T04:30:25.205Z,7.20
2019-05-05T04:32:54.605Z,7.10
2019-05-05T04:35:24.634Z,7.10
2019-05-05T04:37:54.262Z,7.10
2019-05-05T04:40:24.173Z,7.10
2019-05-05T04:42:54.726Z,7.10
2019-05-05T04:45:24.054Z,7.00
2019-05-05T04:47:57.799Z,7.00
2019-05-05T04:50:31.198Z,7.10
2019-05-05T04:53:01.567Z,7.10
2019-05-05T04:55:30.831Z,7.10
2019-05-05T04:57:59.723Z,7.10
2019-05-05T05:00:28.615Z,7.00
2019-05-05T05:02:59.152Z,7.10
2019-05-05T05:05:29.585Z,7.10
2019-05-05T05:07:58.355Z,7.10
2019-05-05T05:10:27.278Z,7.10
2019-05-05T05:12:56.157Z,7.10
2019-05-05T05:15:24.957Z,7.10
2019-05-05T05:18:04.230Z,7.20
2019-05-05T05:20:33.979Z,7.20
2019-05-05T05:23:03.653Z,7.20
2019-05-05T05:25:34.491Z,7.20
2019-05-05T05:28:04.140Z,7.20
2019-05-05T05:30:34.747Z,7.20
2019-05-05T05:33:04.456Z,7.30
2019-05-05T05:35:33.638Z,7.30
2019-05-05T05:38:04.405Z,7.30
2019-05-05T05:40:34.780Z,7.30
2019-05-05T05:43:05.171Z,7.30
2019-05-05T05:45:35.633Z,7.30
2019-05-05T05:48:06.063Z,7.30
2019-05-05T05:50:36.699Z,7.30
2019-05-05T05:53:05.490Z,7.30
2019-05-05T05:55:34.381Z,7.30
2019-05-05T05:58:04.799Z,7.20
2019-05-05T06:00:34.504Z,7.30
2019-05-05T06:03:03.891Z,7.30
2019-05-05T06:05:34.451Z,7.30
2019-05-05T06:08:04.732Z,7.40
2019-05-05T06:10:34.033Z,7.50
2019-05-05T06:13:04.148Z,7.50
2019-05-05T06:15:33.891Z,7.60
2019-05-05T06:18:04.635Z,7.60
2019-05-05T06:20:34.402Z,7.60
2019-05-05T06:23:04.075Z,7.60
2019-05-05T06:25:34.272Z,7.60
2019-05-05T06:28:04.208Z,7.60
2019-05-05T06:30:33.757Z,7.70
2019-05-05T06:33:04.720Z,7.70
2019-05-05T06:35:33.791Z,7.80
2019-05-05T06:38:04.709Z,7.80
2019-05-05T06:40:38.359Z,7.80
2019-05-05T06:43:08.773Z,7.80
2019-05-05T06:45:39.438Z,7.80
2019-05-05T06:48:08.399Z,7.90
2019-05-05T06:50:37.268Z,8.00
2019-05-05T06:53:06.084Z,8.10
2019-05-05T06:55:34.866Z,8.20
2019-05-05T06:58:04.612Z,8.20
2019-05-05T07:00:34.726Z,8.30
2019-05-05T07:03:07.364Z,8.40
2019-05-05T07:05:34.220Z,8.40
2019-05-05T07:08:04.465Z,8.40
2019-05-05T07:10:33.905Z,8.40
2019-05-05T07:13:04.803Z,8.40
2019-05-05T07:15:34.281Z,8.40
2019-05-05T07:18:04.961Z,8.40
2019-05-05T07:20:34.733Z,8.40
2019-05-05T07:23:05.465Z,8.50
2019-05-05T07:25:42.716Z,8.60
2019-05-05T07:28:04.619Z,8.70
2019-05-05T07:30:33.693Z,8.80
2019-05-05T07:33:04.509Z,8.80
2019-05-05T07:35:56.915Z,8.90
2019-05-05T07:38:17.301Z,8.90
2019-05-05T07:40:46.092Z,9.00
2019-05-05T07:43:15.090Z,9.10
2019-05-05T07:45:44.573Z,9.20
2019-05-05T07:48:13.923Z,9.30
2019-05-05T07:50:45.013Z,9.40
2019-05-05T07:53:17.511Z,9.50
2019-05-05T07:55:44.172Z,9.60
2019-05-05T07:58:13.897Z,9.80
2019-05-05T08:00:43.622Z,9.90
2019-05-05T08:03:14.385Z,10.00
2019-05-05T08:05:44.220Z,10.00
2019-05-05T08:08:13.973Z,10.00
2019-05-05T08:10:43.766Z,10.10
2019-05-05T08:13:14.152Z,10.00
2019-05-05T08:15:56.810Z,10.00
2019-05-05T08:18:17.107Z,10.00
2019-05-05T08:20:47.538Z,9.90
2019-05-05T08:23:30.170Z,9.80
2019-05-05T08:25:55.983Z,9.60
2019-05-05T08:28:35.591Z,9.50
2019-05-05T08:31:06.046Z,9.50
2019-05-05T08:33:34.920Z,9.40
2019-05-05T08:36:04.582Z,9.30
2019-05-05T08:38:34.769Z,9.30
2019-05-05T08:41:04.537Z,9.20
2019-05-05T08:43:34.731Z,9.20
2019-05-05T08:46:04.915Z,9.10
2019-05-05T08:48:34.227Z,9.00
2019-05-05T08:51:04.911Z,9.00
2019-05-05T08:53:44.033Z,9.10
2019-05-05T08:56:04.321Z,9.20
2019-05-05T08:58:34.379Z,9.40
2019-05-05T09:01:04.394Z,9.60
2019-05-05T09:03:33.814Z,9.70
2019-05-05T09:06:04.728Z,9.80
2019-05-05T09:08:34.707Z,10.00
2019-05-05T09:11:04.730Z,10.00
2019-05-05T09:13:34.053Z,10.00
2019-05-05T09:16:03.740Z,10.00
2019-05-05T09:18:33.946Z,9.80
2019-05-05T09:21:04.410Z,9.60
2019-05-05T09:23:35.010Z,9.40
2019-05-05T09:26:08.441Z,9.20
2019-05-05T09:28:41.948Z,9.20
2019-05-05T09:31:10.936Z,9.10
2019-05-05T09:33:39.828Z,9.10
2019-05-05T09:36:08.625Z,9.20
2019-05-05T09:38:37.470Z,9.20
2019-05-05T09:41:06.246Z,9.30
2019-05-05T09:43:35.204Z,9.40
2019-05-05T09:46:04.307Z,9.50
2019-05-05T09:48:33.674Z,9.50
2019-05-05T09:51:04.375Z,9.60
2019-05-05T09:53:34.482Z,9.70
2019-05-05T09:56:04.184Z,9.80
2019-05-05T09:58:34.786Z,9.90
2019-05-05T10:01:04.990Z,10.20
2019-05-05T10:03:34.118Z,10.50
2019-05-05T10:06:04.913Z,11.00
2019-05-05T10:08:34.135Z,11.50
2019-05-05T10:11:04.108Z,11.80
2019-05-05T10:13:33.595Z,12.10
2019-05-05T10:16:03.931Z,12.30
2019-05-05T10:18:35.832Z,12.60
2019-05-05T10:21:04.593Z,12.90
2019-05-05T10:23:35.326Z,13.30
2019-05-05T10:26:05.869Z,13.70
2019-05-05T10:28:34.758Z,14.10
2019-05-05T10:31:04.587Z,14.40
2019-05-05T10:33:36.462Z,14.80
2019-05-05T10:36:05.539Z,15.00
2019-05-05T10:38:36.250Z,15.20
2019-05-05T10:41:05.062Z,15.20
2019-05-05T10:43:34.314Z,15.30
2019-05-05T10:46:03.972Z,15.30
2019-05-05T10:48:34.017Z,15.10
2019-05-05T10:51:04.181Z,15.10
2019-05-05T10:53:33.320Z,15.20
2019-05-05T10:56:04.270Z,15.40
2019-05-05T10:58:33.575Z,15.40
2019-05-05T11:01:04.272Z,15.40
2019-05-05T11:03:34.292Z,15.30
2019-05-05T11:06:04.525Z,15.10
2019-05-05T11:08:34.930Z,15.00
2019-05-05T11:11:04.304Z,14.80
2019-05-05T11:13:34.443Z,14.70
2019-05-05T11:16:04.033Z,14.50
2019-05-05T11:18:34.494Z,14.50
2019-05-05T11:21:04.153Z,14.50
2019-05-05T11:23:34.625Z,14.40
2019-05-05T11:26:03.778Z,14.30
2019-05-05T11:28:34.223Z,14.30
2019-05-05T11:31:04.436Z,14.30
2019-05-05T11:33:54.197Z,14.10
2019-05-05T11:36:24.952Z,13.90
2019-05-05T11:38:53.878Z,13.80
2019-05-05T11:41:24.255Z,13.90
2019-05-05T11:43:53.504Z,14.00
2019-05-05T11:46:24.526Z,14.10
2019-05-05T11:48:54.362Z,14.40
2019-05-05T11:51:24.959Z,14.60
2019-05-05T11:53:54.183Z,14.50
2019-05-05T11:56:23.277Z,14.60
2019-05-05T11:58:52.171Z,14.70
2019-05-05T12:01:20.960Z,14.90
2019-05-05T12:03:49.963Z,14.90
2019-05-05T12:06:19.057Z,14.90
2019-05-05T12:08:47.956Z,15.00
2019-05-05T12:11:16.846Z,15.20
2019-05-05T12:13:46.764Z,15.40
2019-05-05T12:16:17.200Z,15.40
2019-05-05T12:18:46.195Z,15.30
2019-05-05T12:21:15.090Z,15.30
2019-05-05T12:23:44.420Z,15.20
2019-05-05T12:26:24.410Z,15.20
2019-05-05T12:28:54.874Z,15.30
2019-05-05T12:31:25.325Z,15.40
2019-05-05T12:33:54.779Z,15.20
2019-05-05T12:36:23.909Z,15.20
2019-05-05T12:38:54.571Z,15.10
2019-05-05T12:41:23.907Z,15.10
2019-05-05T12:43:54.856Z,15.00
2019-05-05T12:46:28.085Z,15.00
2019-05-05T12:48:58.723Z,15.00
2019-05-05T12:51:27.513Z,14.90
2019-05-05T12:53:56.261Z,14.80
2019-05-05T12:56:25.043Z,14.80
2019-05-05T12:58:54.543Z,14.60
2019-05-05T13:01:25.133Z,14.50
2019-05-05T13:03:54.323Z,14.20
2019-05-05T13:06:23.994Z,14.10
2019-05-05T13:08:53.339Z,14.00
2019-05-05T13:11:23.819Z,14.00
2019-05-05T13:13:54.561Z,14.00
2019-05-05T13:16:25.117Z,13.70
2019-05-05T13:18:54.172Z,13.40
2019-05-05T13:21:44.188Z,13.20
2019-05-05T13:24:17.832Z,13.00
2019-05-05T13:26:48.255Z,12.70
2019-05-05T13:29:17.157Z,12.40
2019-05-05T13:31:46.059Z,12.20
2019-05-05T13:34:14.844Z,12.00
2019-05-05T13:36:44.249Z,11.90
2019-05-05T13:39:14.484Z,11.80
2019-05-05T13:41:44.847Z,11.70
2019-05-05T13:44:15.508Z,11.70
2019-05-05T13:46:44.541Z,11.70
2019-05-05T13:49:18.345Z,11.70
2019-05-05T13:51:47.345Z,11.70
2019-05-05T13:54:16.343Z,11.60
2019-05-05T13:56:45.232Z,11.60
2019-05-05T13:59:14.292Z,11.40
2019-05-05T14:01:44.853Z,11.30
2019-05-05T14:04:14.983Z,11.30
2019-05-05T14:06:45.120Z,11.20
2019-05-05T14:09:14.271Z,11.20
2019-05-05T14:11:44.541Z,11.10
2019-05-05T14:14:13.880Z,11.10
2019-05-05T14:16:44.668Z,11.00
2019-05-05T14:19:14.587Z,10.90
2019-05-05T14:21:44.611Z,10.90
2019-05-05T14:24:20.782Z,10.80
2019-05-05T14:26:49.576Z,10.70
2019-05-05T14:29:36.557Z,10.60
2019-05-05T14:32:07.013Z,10.50
2019-05-05T14:34:37.420Z,10.50
2019-05-05T14:37:24.826Z,10.50
2019-05-05T14:39:54.544Z,10.30
2019-05-05T14:42:23.782Z,10.30
2019-05-05T14:44:54.399Z,10.20
2019-05-05T14:47:24.522Z,10.10
2019-05-05T14:49:54.047Z,10.00
2019-05-05T14:52:24.681Z,10.00
2019-05-05T14:54:54.297Z,10.00
2019-05-05T14:57:25.093Z,9.90
2019-05-05T14:59:54.071Z,9.90
2019-05-05T15:02:24.412Z,9.80
2019-05-05T15:04:55.190Z,9.80
2019-05-05T15:07:44.333Z,9.80
2019-05-05T15:10:29.241Z,9.70
2019-05-05T15:13:00.000Z,9.70
2019-05-05T15:15:28.865Z,9.60
2019-05-05T15:17:57.935Z,9.60
2019-05-05T15:20:26.931Z,9.50
2019-05-05T15:22:55.822Z,9.40
2019-05-05T15:25:24.720Z,9.40
2019-05-05T15:27:54.209Z,9.30
2019-05-05T15:30:27.113Z,9.30
2019-05-05T15:32:54.180Z,9.30
2019-05-05T15:35:23.193Z,9.20
2019-05-05T15:37:53.977Z,9.20
2019-05-05T15:40:24.648Z,9.20
2019-05-05T15:42:54.487Z,9.20
2019-05-05T15:45:23.559Z,9.10
2019-05-05T15:47:54.057Z,9.10
2019-05-05T15:50:23.284Z,9.10
2019-05-05T15:52:52.074Z,9.10
2019-05-05T15:55:20.798Z,9.10
2019-05-05T15:57:49.667Z,9.10
2019-05-05T16:00:19.012Z,9.10
2019-05-05T16:02:47.754Z,9.00
2019-05-05T16:05:16.575Z,9.00
2019-05-05T16:07:45.374Z,9.00
2019-05-05T16:10:14.653Z,8.90
2019-05-05T16:12:45.034Z,8.90
2019-05-05T16:15:18.955Z,8.80
2019-05-05T16:17:49.515Z,8.80
2019-05-05T16:20:36.504Z,8.70
2019-05-05T16:23:22.406Z,8.70
2019-05-05T16:25:51.305Z,8.60
2019-05-05T16:28:20.303Z,8.50
2019-05-05T16:30:49.230Z,8.50
2019-05-05T16:33:18.090Z,8.50
2019-05-05T16:35:46.857Z,8.50
2019-05-05T16:38:15.879Z,8.40
2019-05-05T16:40:45.491Z,8.40
2019-05-05T16:43:16.734Z,8.30
2019-05-05T16:45:44.919Z,8.30
2019-05-05T16:48:13.818Z,8.30
2019-05-05T16:50:44.148Z,8.20
2019-05-05T16:53:30.945Z,8.20
2019-05-05T16:56:00.046Z,8.20
2019-05-05T16:58:29.041Z,8.10
2019-05-05T17:00:57.932Z,8.00
2019-05-05T17:03:26.831Z,8.00
2019-05-05T17:05:57.969Z,8.00
2019-05-05T17:08:26.118Z,7.90
2019-05-05T17:10:54.948Z,7.90
2019-05-05T17:13:44.121Z,7.80
2019-05-05T17:16:35.218Z,7.70
2019-05-05T17:19:08.705Z,7.70
2019-05-05T17:21:39.340Z,7.60
2019-05-05T17:24:08.229Z,7.50
2019-05-05T17:26:37.123Z,7.50
2019-05-05T17:29:05.922Z,7.40
2019-05-05T17:31:34.813Z,7.40
2019-05-05T17:34:04.168Z,7.30
2019-05-05T17:36:33.320Z,7.20
2019-05-05T17:39:02.109Z,7.10
2019-05-05T17:41:34.185Z,7.10
2019-05-05T17:44:07.474Z,7.10
2019-05-05T17:46:40.960Z,7.00
2019-05-05T17:49:27.063Z,6.90
2019-05-05T17:52:00.642Z,6.90
2019-05-05T17:54:46.503Z,6.80
2019-05-05T17:57:15.542Z,6.70
2019-05-05T17:59:44.540Z,6.60
2019-05-05T18:02:13.442Z,6.60
2019-05-05T18:04:44.381Z,6.50
2019-05-05T18:07:14.903Z,6.50
2019-05-05T18:09:57.764Z,6.40
2019-05-05T18:12:37.183Z,6.40
2019-05-05T18:15:07.785Z,6.30
2019-05-05T18:17:36.755Z,6.20
2019-05-05T18:20:06.741Z,6.10
2019-05-05T18:22:35.601Z,6.00
2019-05-05T18:25:09.914Z,5.90
2019-05-05T18:27:38.655Z,5.90
2019-05-05T18:30:07.694Z,5.80
2019-05-05T18:32:36.521Z,5.80
2019-05-05T18:35:06.856Z,5.70
2019-05-05T18:37:35.776Z,5.70
2019-05-05T18:40:08.468Z,5.70
2019-05-05T18:42:37.363Z,5.60
2019-05-05T18:45:09.408Z,5.50
2019-05-05T18:47:38.221Z,5.40
2019-05-05T18:50:07.723Z,5.40
2019-05-05T18:52:36.541Z,5.40
2019-05-05T18:55:08.051Z,5.30
2019-05-05T18:57:36.831Z,5.30
2019-05-05T19:00:08.915Z,5.20
2019-05-05T19:02:39.572Z,5.20
2019-05-05T19:05:13.395Z,5.10
2019-05-05T19:07:59.163Z,5.10
2019-05-05T19:10:28.098Z,5.10
2019-05-05T19:12:57.042Z,5.00
2019-05-05T19:15:25.991Z,5.00
2019-05-05T19:17:54.758Z,5.00
2019-05-05T19:20:27.897Z,4.90
2019-05-05T19:22:58.397Z,4.90
2019-05-05T19:25:27.167Z,4.90
2019-05-05T19:27:56.013Z,4.90
2019-05-05T19:30:25.656Z,4.90
2019-05-05T19:32:54.611Z,4.90
2019-05-05T19:35:30.267Z,4.90
2019-05-05T19:37:54.104Z,4.80
2019-05-05T19:40:24.350Z,4.80
2019-05-05T19:42:53.840Z,4.70
2019-05-05T19:45:24.073Z,4.70
2019-05-05T19:47:53.168Z,4.70
2019-05-05T19:50:38.825Z,4.60
2019-05-05T19:53:09.275Z,4.60
2019-05-05T19:55:38.019Z,4.50
2019-05-05T19:58:06.955Z,4.50
2019-05-05T20:00:38.472Z,4.40
2019-05-05T20:03:06.203Z,4.40
2019-05-05T20:05:35.026Z,4.40
2019-05-05T20:08:04.152Z,4.30
2019-05-05T20:10:33.037Z,4.30
2019-05-05T20:13:01.928Z,4.30
2019-05-05T20:15:35.378Z,4.20
2019-05-05T20:18:04.654Z,4.20
2019-05-05T20:20:33.730Z,4.20
2019-05-05T20:23:04.178Z,4.20
2019-05-05T20:25:34.038Z,4.20
2019-05-05T20:28:03.857Z,4.10
2019-05-05T20:30:34.266Z,4.10
2019-05-05T20:33:07.985Z,4.10
2019-05-05T20:35:44.751Z,4.00
2019-05-05T20:38:20.920Z,4.10
2019-05-05T20:41:05.978Z,4.00
2019-05-05T20:43:35.173Z,4.00
2019-05-05T20:46:04.542Z,4.00
2019-05-05T20:48:34.596Z,4.00
2019-05-05T20:51:03.597Z,3.90
2019-05-05T20:53:34.277Z,3.90
2019-05-05T20:56:04.319Z,3.90
2019-05-05T20:58:33.770Z,3.90
2019-05-05T21:01:04.520Z,3.90
2019-05-05T21:03:34.650Z,3.80
2019-05-05T21:06:04.588Z,3.80
2019-05-05T21:08:34.747Z,3.80
2019-05-05T21:11:04.330Z,3.70
2019-05-05T21:13:34.184Z,3.70
2019-05-05T21:16:03.292Z,3.70
2019-05-05T21:18:34.529Z,3.70
2019-05-05T21:21:04.579Z,3.80
2019-05-05T21:23:35.405Z,3.80
2019-05-05T21:26:08.840Z,3.80
2019-05-05T21:28:37.695Z,3.80
2019-05-05T21:31:06.687Z,3.80
2019-05-05T21:33:35.585Z,3.70
2019-05-05T21:36:04.592Z,3.70
2019-05-05T21:38:35.384Z,3.70
2019-05-05T21:41:04.372Z,3.60
2019-05-05T21:43:33.623Z,3.70
2019-05-05T21:46:04.295Z,3.60
2019-05-05T21:48:34.052Z,3.60
2019-05-05T21:51:07.774Z,3.60
2019-05-05T21:53:38.210Z,3.60
2019-05-05T21:56:25.314Z,3.60
2019-05-05T21:58:56.792Z,3.50
2019-05-05T22:01:27.667Z,3.50
2019-05-05T22:03:56.503Z,3.50
2019-05-05T22:06:25.601Z,3.50
2019-05-05T22:08:54.601Z,3.60
2019-05-05T22:11:24.242Z,3.60
2019-05-05T22:13:54.032Z,3.60
2019-05-05T22:16:23.428Z,3.50
2019-05-05T22:18:54.003Z,3.50
2019-05-05T22:21:35.676Z,3.50
2019-05-05T22:24:15.965Z,3.40
2019-05-05T22:26:45.820Z,3.40
2019-05-05T22:29:17.074Z,3.40
2019-05-05T22:31:45.551Z,3.40
2019-05-05T22:34:15.778Z,3.40
2019-05-05T22:36:44.966Z,3.40
2019-05-05T22:39:17.005Z,3.30
2019-05-05T22:41:46.321Z,3.30
2019-05-05T22:44:15.246Z,3.30
2019-05-05T22:46:44.140Z,3.30
2019-05-05T22:49:14.710Z,3.30
2019-05-05T22:51:44.697Z,3.20
2019-05-05T22:54:14.996Z,3.30
2019-05-05T22:56:44.794Z,3.30
2019-05-05T22:59:14.211Z,3.20
2019-05-05T23:01:44.308Z,3.20
2019-05-05T23:04:29.940Z,3.20
2019-05-05T23:07:03.679Z,3.10
2019-05-05T23:09:30.894Z,3.00
2019-05-05T23:11:59.714Z,3.00
2019-05-05T23:14:28.670Z,3.00
2019-05-05T23:17:10.070Z,3.00
2019-05-05T23:19:44.483Z,3.00
2019-05-05T23:22:34.846Z,2.90
2019-05-05T23:25:14.440Z,3.00
2019-05-05T23:27:49.548Z,3.00
2019-05-05T23:30:23.534Z,3.00
2019-05-05T23:32:51.628Z,3.10
2019-05-05T23:35:20.532Z,3.10
2019-05-05T23:37:49.428Z,3.10
2019-05-05T23:40:24.721Z,3.10
2019-05-05T23:42:54.315Z,3.10
2019-05-05T23:45:24.758Z,3.10
2019-05-05T23:47:54.648Z,3.10
2019-05-05T23:50:24.551Z,3.00
2019-05-05T23:52:54.417Z,3.00
2019-05-05T23:55:24.071Z,3.00
2019-05-05T23:57:54.751Z,3.00
